sensor_id;sensor_type;location;lat;lon;timestamp;P1;durP1;ratioP1;P2;durP2;ratioP2
25045;SDS011;13044;49.304;12.840;2023-09-12T00:00:48;8.25;;;7.18;;
25045;SDS011;13044;49.304;12.840;2023-09-12T00:03:18;9.80;;;7.63;;
25045;SDS011;13044;49.304;12.840;2023-09-12T00:05:52;8.15;;;7.35;;
25045;SDS011;13044;49.304;12.840;2023-09-12T00:08:20;7.28;;;6.53;;
25045;SDS011;13044;49.304;12.840;2023-09-12T00:10:58;8.60;;;6.65;;
25045;SDS011;13044;49.304;12.840;2023-09-12T00:13:32;8.57;;;7.32;;
25045;SDS011;13044;49.304;12.840;2023-09-12T00:15:59;7.55;;;6.85;;
25045;SDS011;13044;49.304;12.840;2023-09-12T00:18:27;7.40;;;6.70;;
25045;SDS011;13044;49.304;12.840;2023-09-12T00:20:54;9.30;;;8.13;;
25045;SDS011;13044;49.304;12.840;2023-09-12T00:23:21;9.43;;;7.18;;
25045;SDS011;13044;49.304;12.840;2023-09-12T00:25:50;7.97;;;7.18;;
25045;SDS011;13044;49.304;12.840;2023-09-12T00:28:20;8.25;;;7.45;;
25045;SDS011;13044;49.304;12.840;2023-09-12T00:30:47;7.47;;;6.78;;
25045;SDS011;13044;49.304;12.840;2023-09-12T00:33:14;6.95;;;6.25;;
25045;SDS011;13044;49.304;12.840;2023-09-12T00:35:42;10.77;;;7.28;;
25045;SDS011;13044;49.304;12.840;2023-09-12T00:38:10;6.97;;;6.32;;
25045;SDS011;13044;49.304;12.840;2023-09-12T00:40:37;7.50;;;6.78;;
25045;SDS011;13044;49.304;12.840;2023-09-12T00:43:04;8.68;;;7.57;;
25045;SDS011;13044;49.304;12.840;2023-09-12T00:45:31;9.00;;;7.57;;
25045;SDS011;13044;49.304;12.840;2023-09-12T00:47:58;9.77;;;7.43;;
25045;SDS011;13044;49.304;12.840;2023-09-12T00:50:28;8.80;;;6.60;;
25045;SDS011;13044;49.304;12.840;2023-09-12T00:52:57;8.32;;;7.15;;
25045;SDS011;13044;49.304;12.840;2023-09-12T00:55:25;10.23;;;7.45;;
25045;SDS011;13044;49.304;12.840;2023-09-12T00:57:52;8.13;;;7.32;;
25045;SDS011;13044;49.304;12.840;2023-09-12T01:00:19;9.88;;;7.75;;
25045;SDS011;13044;49.304;12.840;2023-09-12T01:02:47;7.70;;;6.70;;
25045;SDS011;13044;49.304;12.840;2023-09-12T01:05:16;8.25;;;6.80;;
25045;SDS011;13044;49.304;12.840;2023-09-12T01:07:43;8.02;;;6.97;;
25045;SDS011;13044;49.304;12.840;2023-09-12T01:10:10;7.30;;;6.60;;
25045;SDS011;13044;49.304;12.840;2023-09-12T01:12:37;7.43;;;6.72;;
25045;SDS011;13044;49.304;12.840;2023-09-12T01:15:05;8.40;;;7.60;;
25045;SDS011;13044;49.304;12.840;2023-09-12T01:17:40;7.38;;;6.65;;
25045;SDS011;13044;49.304;12.840;2023-09-12T01:20:14;9.00;;;7.70;;
25045;SDS011;13044;49.304;12.840;2023-09-12T01:28:45;8.40;;;6.20;;
25045;SDS011;13044;49.304;12.840;2023-09-12T01:31:12;8.27;;;7.45;;
25045;SDS011;13044;49.304;12.840;2023-09-12T01:33:41;9.13;;;7.47;;
25045;SDS011;13044;49.304;12.840;2023-09-12T01:36:10;8.05;;;6.93;;
25045;SDS011;13044;49.304;12.840;2023-09-12T01:38:37;6.68;;;6.07;;
25045;SDS011;13044;49.304;12.840;2023-09-12T01:41:04;8.00;;;6.82;;
25045;SDS011;13044;49.304;12.840;2023-09-12T01:43:32;7.20;;;6.47;;
25045;SDS011;13044;49.304;12.840;2023-09-12T01:46:02;7.75;;;7.05;;
25045;SDS011;13044;49.304;12.840;2023-09-12T01:48:31;6.47;;;5.88;;
25045;SDS011;13044;49.304;12.840;2023-09-12T01:51:01;8.77;;;7.10;;
25045;SDS011;13044;49.304;12.840;2023-09-12T01:53:29;7.15;;;6.45;;
25045;SDS011;13044;49.304;12.840;2023-09-12T01:55:59;8.52;;;7.35;;
25045;SDS011;13044;49.304;12.840;2023-09-12T01:58:26;7.93;;;6.82;;
25045;SDS011;13044;49.304;12.840;2023-09-12T02:00:53;7.78;;;6.97;;
25045;SDS011;13044;49.304;12.840;2023-09-12T02:03:21;8.07;;;7.28;;
25045;SDS011;13044;49.304;12.840;2023-09-12T02:05:48;8.15;;;7.00;;
25045;SDS011;13044;49.304;12.840;2023-09-12T02:08:15;7.38;;;6.60;;
25045;SDS011;13044;49.304;12.840;2023-09-12T02:10:42;8.60;;;6.72;;
25045;SDS011;13044;49.304;12.840;2023-09-12T02:13:08;8.00;;;6.60;;
25045;SDS011;13044;49.304;12.840;2023-09-12T02:15:35;7.85;;;6.85;;
25045;SDS011;13044;49.304;12.840;2023-09-12T02:18:02;8.32;;;6.53;;
25045;SDS011;13044;49.304;12.840;2023-09-12T02:20:30;8.55;;;7.07;;
25045;SDS011;13044;49.304;12.840;2023-09-12T02:22:59;8.30;;;7.22;;
25045;SDS011;13044;49.304;12.840;2023-09-12T02:25:26;6.82;;;6.22;;
25045;SDS011;13044;49.304;12.840;2023-09-12T02:27:52;8.23;;;6.65;;
25045;SDS011;13044;49.304;12.840;2023-09-12T02:30:19;8.65;;;6.82;;
25045;SDS011;13044;49.304;12.840;2023-09-12T02:32:46;8.10;;;7.30;;
25045;SDS011;13044;49.304;12.840;2023-09-12T02:35:13;6.85;;;6.15;;
25045;SDS011;13044;49.304;12.840;2023-09-12T02:37:40;7.88;;;7.18;;
25045;SDS011;13044;49.304;12.840;2023-09-12T02:40:07;8.35;;;7.25;;
25045;SDS011;13044;49.304;12.840;2023-09-12T02:42:37;9.35;;;6.72;;
25045;SDS011;13044;49.304;12.840;2023-09-12T02:45:05;8.82;;;7.95;;
25045;SDS011;13044;49.304;12.840;2023-09-12T02:47:32;7.80;;;7.03;;
25045;SDS011;13044;49.304;12.840;2023-09-12T02:49:59;7.72;;;7.03;;
25045;SDS011;13044;49.304;12.840;2023-09-12T02:52:26;7.35;;;6.50;;
25045;SDS011;13044;49.304;12.840;2023-09-12T02:54:53;7.45;;;6.65;;
25045;SDS011;13044;49.304;12.840;2023-09-12T02:57:20;7.60;;;6.78;;
25045;SDS011;13044;49.304;12.840;2023-09-12T02:59:47;8.65;;;6.90;;
25045;SDS011;13044;49.304;12.840;2023-09-12T03:02:14;8.18;;;6.90;;
25045;SDS011;13044;49.304;12.840;2023-09-12T03:04:41;8.05;;;7.03;;
25045;SDS011;13044;49.304;12.840;2023-09-12T03:07:08;7.15;;;6.45;;
25045;SDS011;13044;49.304;12.840;2023-09-12T03:09:35;7.20;;;6.50;;
25045;SDS011;13044;49.304;12.840;2023-09-12T03:12:04;7.68;;;6.95;;
25045;SDS011;13044;49.304;12.840;2023-09-12T03:14:32;7.43;;;6.75;;
25045;SDS011;13044;49.304;12.840;2023-09-12T03:16:59;7.43;;;6.63;;
25045;SDS011;13044;49.304;12.840;2023-09-12T03:19:26;7.53;;;6.82;;
25045;SDS011;13044;49.304;12.840;2023-09-12T03:21:53;8.55;;;7.50;;
25045;SDS011;13044;49.304;12.840;2023-09-12T03:24:20;12.60;;;8.48;;
25045;SDS011;13044;49.304;12.840;2023-09-12T03:26:50;9.82;;;7.95;;
25045;SDS011;13044;49.304;12.840;2023-09-12T03:29:18;9.18;;;7.65;;
25045;SDS011;13044;49.304;12.840;2023-09-12T03:31:44;7.65;;;6.90;;
25045;SDS011;13044;49.304;12.840;2023-09-12T03:34:11;11.00;;;8.18;;
25045;SDS011;13044;49.304;12.840;2023-09-12T03:36:38;8.27;;;7.47;;
25045;SDS011;13044;49.304;12.840;2023-09-12T03:39:05;9.63;;;7.45;;
25045;SDS011;13044;49.304;12.840;2023-09-12T03:41:34;8.90;;;7.15;;
25045;SDS011;13044;49.304;12.840;2023-09-12T03:44:01;7.97;;;7.18;;
25045;SDS011;13044;49.304;12.840;2023-09-12T03:46:28;8.70;;;7.80;;
25045;SDS011;13044;49.304;12.840;2023-09-12T03:48:55;11.40;;;7.75;;
25045;SDS011;13044;49.304;12.840;2023-09-12T03:51:22;8.73;;;7.65;;
25045;SDS011;13044;49.304;12.840;2023-09-12T03:53:49;12.75;;;7.70;;
25045;SDS011;13044;49.304;12.840;2023-09-12T03:56:16;9.10;;;8.20;;
25045;SDS011;13044;49.304;12.840;2023-09-12T03:58:46;8.70;;;7.30;;
25045;SDS011;13044;49.304;12.840;2023-09-12T04:01:13;9.48;;;7.55;;
25045;SDS011;13044;49.304;12.840;2023-09-12T04:03:40;8.65;;;7.55;;
25045;SDS011;13044;49.304;12.840;2023-09-12T04:06:08;8.30;;;7.50;;
25045;SDS011;13044;49.304;12.840;2023-09-12T04:08:35;8.48;;;7.35;;
25045;SDS011;13044;49.304;12.840;2023-09-12T04:11:02;8.70;;;7.80;;
25045;SDS011;13044;49.304;12.840;2023-09-12T04:13:29;10.13;;;7.35;;
25045;SDS011;13044;49.304;12.840;2023-09-12T04:15:56;9.18;;;7.82;;
25045;SDS011;13044;49.304;12.840;2023-09-12T04:18:24;7.55;;;6.68;;
25045;SDS011;13044;49.304;12.840;2023-09-12T04:20:51;7.60;;;6.82;;
25045;SDS011;13044;49.304;12.840;2023-09-12T04:23:18;7.25;;;6.55;;
25045;SDS011;13044;49.304;12.840;2023-09-12T04:25:47;7.43;;;6.63;;
25045;SDS011;13044;49.304;12.840;2023-09-12T04:28:14;7.72;;;6.95;;
25045;SDS011;13044;49.304;12.840;2023-09-12T04:30:41;7.75;;;6.95;;
25045;SDS011;13044;49.304;12.840;2023-09-12T04:33:12;9.00;;;7.18;;
25045;SDS011;13044;49.304;12.840;2023-09-12T04:35:39;8.52;;;7.63;;
25045;SDS011;13044;49.304;12.840;2023-09-12T04:38:06;9.73;;;8.02;;
25045;SDS011;13044;49.304;12.840;2023-09-12T04:40:33;8.52;;;7.22;;
25045;SDS011;13044;49.304;12.840;2023-09-12T04:42:59;9.40;;;8.05;;
25045;SDS011;13044;49.304;12.840;2023-09-12T04:45:26;10.48;;;8.73;;
25045;SDS011;13044;49.304;12.840;2023-09-12T04:47:53;11.23;;;8.18;;
25045;SDS011;13044;49.304;12.840;2023-09-12T04:50:20;10.52;;;8.13;;
25045;SDS011;13044;49.304;12.840;2023-09-12T04:52:47;11.80;;;9.02;;
25045;SDS011;13044;49.304;12.840;2023-09-12T04:55:14;10.95;;;9.40;;
25045;SDS011;13044;49.304;12.840;2023-09-12T04:57:41;10.93;;;8.23;;
25045;SDS011;13044;49.304;12.840;2023-09-12T05:00:08;11.57;;;8.68;;
25045;SDS011;13044;49.304;12.840;2023-09-12T05:02:37;11.55;;;9.88;;
25045;SDS011;13044;49.304;12.840;2023-09-12T05:05:04;10.75;;;8.85;;
25045;SDS011;13044;49.304;12.840;2023-09-12T05:07:31;9.75;;;8.73;;
25045;SDS011;13044;49.304;12.840;2023-09-12T05:09:58;11.70;;;7.60;;
25045;SDS011;13044;49.304;12.840;2023-09-12T05:12:25;10.45;;;8.68;;
25045;SDS011;13044;49.304;12.840;2023-09-12T05:14:53;12.10;;;7.80;;
25045;SDS011;13044;49.304;12.840;2023-09-12T05:17:19;14.13;;;8.73;;
25045;SDS011;13044;49.304;12.840;2023-09-12T05:19:46;12.15;;;7.68;;
25045;SDS011;13044;49.304;12.840;2023-09-12T05:22:13;8.65;;;7.45;;
25045;SDS011;13044;49.304;12.840;2023-09-12T05:24:40;12.48;;;7.55;;
25045;SDS011;13044;49.304;12.840;2023-09-12T05:27:07;7.43;;;6.70;;
25045;SDS011;13044;49.304;12.840;2023-09-12T05:29:34;8.38;;;7.57;;
25045;SDS011;13044;49.304;12.840;2023-09-12T05:32:01;8.75;;;7.85;;
25045;SDS011;13044;49.304;12.840;2023-09-12T05:34:28;8.52;;;7.63;;
25045;SDS011;13044;49.304;12.840;2023-09-12T05:36:56;11.55;;;8.38;;
25045;SDS011;13044;49.304;12.840;2023-09-12T05:39:23;13.75;;;8.10;;
25045;SDS011;13044;49.304;12.840;2023-09-12T05:41:50;9.93;;;8.93;;
25045;SDS011;13044;49.304;12.840;2023-09-12T05:44:17;10.18;;;7.88;;
25045;SDS011;13044;49.304;12.840;2023-09-12T05:46:47;10.23;;;7.47;;
25045;SDS011;13044;49.304;12.840;2023-09-12T05:49:15;13.88;;;10.18;;
25045;SDS011;13044;49.304;12.840;2023-09-12T05:51:42;10.68;;;9.57;;
25045;SDS011;13044;49.304;12.840;2023-09-12T05:54:09;15.10;;;9.15;;
25045;SDS011;13044;49.304;12.840;2023-09-12T05:56:37;14.90;;;9.10;;
25045;SDS011;13044;49.304;12.840;2023-09-12T05:59:04;9.95;;;8.98;;
25045;SDS011;13044;49.304;12.840;2023-09-12T06:01:32;12.88;;;7.57;;
25045;SDS011;13044;49.304;12.840;2023-09-12T06:03:59;13.45;;;9.93;;
25045;SDS011;13044;49.304;12.840;2023-09-12T06:06:27;10.13;;;9.13;;
25045;SDS011;13044;49.304;12.840;2023-09-12T06:08:54;9.30;;;8.32;;
25045;SDS011;13044;49.304;12.840;2023-09-12T06:11:22;14.35;;;7.82;;
25045;SDS011;13044;49.304;12.840;2023-09-12T06:13:49;8.68;;;7.78;;
25045;SDS011;13044;49.304;12.840;2023-09-12T06:16:15;10.75;;;9.18;;
25045;SDS011;13044;49.304;12.840;2023-09-12T06:18:42;10.50;;;9.50;;
25045;SDS011;13044;49.304;12.840;2023-09-12T06:21:10;8.82;;;7.97;;
25045;SDS011;13044;49.304;12.840;2023-09-12T06:23:37;8.70;;;7.88;;
25045;SDS011;13044;49.304;12.840;2023-09-12T06:26:04;8.25;;;7.45;;
25045;SDS011;13044;49.304;12.840;2023-09-12T06:28:31;7.68;;;6.93;;
25045;SDS011;13044;49.304;12.840;2023-09-12T06:30:58;9.80;;;8.60;;
25045;SDS011;13044;49.304;12.840;2023-09-12T06:33:26;9.13;;;8.23;;
25045;SDS011;13044;49.304;12.840;2023-09-12T06:35:53;14.48;;;9.00;;
25045;SDS011;13044;49.304;12.840;2023-09-12T06:38:21;9.35;;;8.45;;
25045;SDS011;13044;49.304;12.840;2023-09-12T06:40:49;9.95;;;8.77;;
25045;SDS011;13044;49.304;12.840;2023-09-12T06:43:16;12.20;;;8.90;;
25045;SDS011;13044;49.304;12.840;2023-09-12T06:45:43;11.15;;;9.43;;
25045;SDS011;13044;49.304;12.840;2023-09-12T06:48:11;12.98;;;9.52;;
25045;SDS011;13044;49.304;12.840;2023-09-12T06:50:38;9.85;;;8.85;;
25045;SDS011;13044;49.304;12.840;2023-09-12T06:53:05;10.20;;;9.20;;
25045;SDS011;13044;49.304;12.840;2023-09-12T06:55:33;9.85;;;8.95;;
25045;SDS011;13044;49.304;12.840;2023-09-12T06:58:00;8.77;;;7.88;;
25045;SDS011;13044;49.304;12.840;2023-09-12T07:00:27;10.38;;;8.50;;
25045;SDS011;13044;49.304;12.840;2023-09-12T07:02:55;9.55;;;8.55;;
25045;SDS011;13044;49.304;12.840;2023-09-12T07:05:22;11.25;;;9.48;;
25045;SDS011;13044;49.304;12.840;2023-09-12T07:07:49;16.33;;;10.38;;
25045;SDS011;13044;49.304;12.840;2023-09-12T07:10:16;10.98;;;9.65;;
25045;SDS011;13044;49.304;12.840;2023-09-12T07:12:52;12.50;;;9.63;;
25045;SDS011;13044;49.304;12.840;2023-09-12T07:15:20;9.50;;;8.60;;
25045;SDS011;13044;49.304;12.840;2023-09-12T07:17:47;11.05;;;9.40;;
25045;SDS011;13044;49.304;12.840;2023-09-12T07:20:15;10.15;;;9.25;;
25045;SDS011;13044;49.304;12.840;2023-09-12T07:22:44;9.38;;;8.40;;
25045;SDS011;13044;49.304;12.840;2023-09-12T07:25:11;10.73;;;9.13;;
25045;SDS011;13044;49.304;12.840;2023-09-12T07:27:42;9.23;;;8.10;;
25045;SDS011;13044;49.304;12.840;2023-09-12T07:30:09;9.55;;;8.65;;
25045;SDS011;13044;49.304;12.840;2023-09-12T07:32:37;11.63;;;9.70;;
25045;SDS011;13044;49.304;12.840;2023-09-12T07:35:04;11.55;;;10.15;;
25045;SDS011;13044;49.304;12.840;2023-09-12T07:37:31;9.27;;;8.38;;
25045;SDS011;13044;49.304;12.840;2023-09-12T07:39:58;9.95;;;8.40;;
25045;SDS011;13044;49.304;12.840;2023-09-12T07:42:25;10.07;;;9.05;;
25045;SDS011;13044;49.304;12.840;2023-09-12T07:44:53;9.93;;;8.93;;
25045;SDS011;13044;49.304;12.840;2023-09-12T07:47:20;9.20;;;7.70;;
25045;SDS011;13044;49.304;12.840;2023-09-12T07:49:54;9.02;;;8.13;;
25045;SDS011;13044;49.304;12.840;2023-09-12T07:52:22;8.35;;;7.55;;
25045;SDS011;13044;49.304;12.840;2023-09-12T07:54:50;9.07;;;8.20;;
25045;SDS011;13044;49.304;12.840;2023-09-12T07:57:23;9.65;;;8.75;;
25045;SDS011;13044;49.304;12.840;2023-09-12T07:59:50;10.63;;;8.65;;
25045;SDS011;13044;49.304;12.840;2023-09-12T08:02:18;9.80;;;8.90;;
25045;SDS011;13044;49.304;12.840;2023-09-12T08:04:45;9.00;;;7.82;;
25045;SDS011;13044;49.304;12.840;2023-09-12T08:07:12;8.90;;;8.00;;
25045;SDS011;13044;49.304;12.840;2023-09-12T08:09:57;8.93;;;8.05;;
25045;SDS011;13044;49.304;12.840;2023-09-12T08:12:25;8.57;;;7.68;;
25045;SDS011;13044;49.304;12.840;2023-09-12T08:14:55;10.32;;;7.55;;
25045;SDS011;13044;49.304;12.840;2023-09-12T08:17:24;9.98;;;6.93;;
25045;SDS011;13044;49.304;12.840;2023-09-12T08:19:51;9.57;;;8.00;;
25045;SDS011;13044;49.304;12.840;2023-09-12T08:22:18;8.75;;;7.72;;
25045;SDS011;13044;49.304;12.840;2023-09-12T08:24:46;8.43;;;7.18;;
25045;SDS011;13044;49.304;12.840;2023-09-12T08:27:13;8.07;;;7.28;;
25045;SDS011;13044;49.304;12.840;2023-09-12T08:29:40;7.57;;;6.88;;
25045;SDS011;13044;49.304;12.840;2023-09-12T08:32:09;8.25;;;7.45;;
25045;SDS011;13044;49.304;12.840;2023-09-12T08:34:37;11.68;;;7.53;;
25045;SDS011;13044;49.304;12.840;2023-09-12T08:37:04;9.85;;;7.10;;
25045;SDS011;13044;49.304;12.840;2023-09-12T08:39:44;11.00;;;8.57;;
25045;SDS011;13044;49.304;12.840;2023-09-12T08:42:13;10.65;;;8.02;;
25045;SDS011;13044;49.304;12.840;2023-09-12T08:44:42;8.68;;;7.88;;
25045;SDS011;13044;49.304;12.840;2023-09-12T08:47:10;8.80;;;7.70;;
25045;SDS011;13044;49.304;12.840;2023-09-12T08:49:39;8.30;;;7.60;;
25045;SDS011;13044;49.304;12.840;2023-09-12T08:52:09;12.25;;;7.25;;
25045;SDS011;13044;49.304;12.840;2023-09-12T08:54:36;7.63;;;6.82;;
25045;SDS011;13044;49.304;12.840;2023-09-12T08:57:07;7.88;;;7.07;;
25045;SDS011;13044;49.304;12.840;2023-09-12T08:59:37;7.93;;;7.13;;
25045;SDS011;13044;49.304;12.840;2023-09-12T09:02:07;7.65;;;6.85;;
25045;SDS011;13044;49.304;12.840;2023-09-12T09:04:38;7.85;;;7.05;;
25045;SDS011;13044;49.304;12.840;2023-09-12T09:07:07;8.00;;;7.25;;
25045;SDS011;13044;49.304;12.840;2023-09-12T09:09:36;7.55;;;6.85;;
25045;SDS011;13044;49.304;12.840;2023-09-12T09:12:06;7.60;;;6.90;;
25045;SDS011;13044;49.304;12.840;2023-09-12T09:14:35;7.63;;;6.82;;
25045;SDS011;13044;49.304;12.840;2023-09-12T09:17:02;6.90;;;6.28;;
25045;SDS011;13044;49.304;12.840;2023-09-12T09:19:39;7.03;;;6.43;;
25045;SDS011;13044;49.304;12.840;2023-09-12T09:22:08;7.40;;;6.70;;
25045;SDS011;13044;49.304;12.840;2023-09-12T09:24:35;8.10;;;7.25;;
25045;SDS011;13044;49.304;12.840;2023-09-12T09:27:03;8.10;;;6.90;;
25045;SDS011;13044;49.304;12.840;2023-09-12T09:29:30;8.23;;;7.35;;
25045;SDS011;13044;49.304;12.840;2023-09-12T09:32:00;7.90;;;7.05;;
25045;SDS011;13044;49.304;12.840;2023-09-12T09:34:28;7.93;;;7.20;;
25045;SDS011;13044;49.304;12.840;2023-09-12T09:36:56;14.85;;;7.20;;
25045;SDS011;13044;49.304;12.840;2023-09-12T09:39:25;8.45;;;7.55;;
25045;SDS011;13044;49.304;12.840;2023-09-12T09:41:56;8.80;;;6.85;;
25045;SDS011;13044;49.304;12.840;2023-09-12T09:44:25;7.35;;;6.72;;
25045;SDS011;13044;49.304;12.840;2023-09-12T09:46:54;7.63;;;6.57;;
25045;SDS011;13044;49.304;12.840;2023-09-12T09:49:27;6.85;;;6.25;;
25045;SDS011;13044;49.304;12.840;2023-09-12T09:51:57;7.43;;;6.70;;
25045;SDS011;13044;49.304;12.840;2023-09-12T09:54:25;7.57;;;6.57;;
25045;SDS011;13044;49.304;12.840;2023-09-12T09:56:53;10.52;;;6.82;;
25045;SDS011;13044;49.304;12.840;2023-09-12T09:59:24;8.38;;;6.03;;
25045;SDS011;13044;49.304;12.840;2023-09-12T10:01:56;7.38;;;6.63;;
25045;SDS011;13044;49.304;12.840;2023-09-12T10:04:28;7.40;;;6.47;;
25045;SDS011;13044;49.304;12.840;2023-09-12T10:06:56;7.60;;;6.57;;
25045;SDS011;13044;49.304;12.840;2023-09-12T10:09:26;7.43;;;6.50;;
25045;SDS011;13044;49.304;12.840;2023-09-12T10:11:55;7.32;;;6.50;;
25045;SDS011;13044;49.304;12.840;2023-09-12T10:14:24;8.15;;;7.03;;
25045;SDS011;13044;49.304;12.840;2023-09-12T10:16:55;7.85;;;6.72;;
25045;SDS011;13044;49.304;12.840;2023-09-12T10:19:37;8.85;;;7.13;;
25045;SDS011;13044;49.304;12.840;2023-09-12T10:22:16;10.98;;;7.22;;
25045;SDS011;13044;49.304;12.840;2023-09-12T10:24:48;9.63;;;7.43;;
25045;SDS011;13044;49.304;12.840;2023-09-12T10:27:18;8.77;;;7.65;;
25045;SDS011;13044;49.304;12.840;2023-09-12T10:29:46;7.40;;;6.80;;
25045;SDS011;13044;49.304;12.840;2023-09-12T10:32:15;8.48;;;7.53;;
25045;SDS011;13044;49.304;12.840;2023-09-12T10:34:46;8.13;;;6.47;;
25045;SDS011;13044;49.304;12.840;2023-09-12T10:37:15;7.50;;;6.40;;
25045;SDS011;13044;49.304;12.840;2023-09-12T10:39:43;11.05;;;6.70;;
25045;SDS011;13044;49.304;12.840;2023-09-12T10:42:12;7.82;;;6.60;;
25045;SDS011;13044;49.304;12.840;2023-09-12T10:44:39;8.98;;;6.72;;
25045;SDS011;13044;49.304;12.840;2023-09-12T10:47:06;7.10;;;6.40;;
25045;SDS011;13044;49.304;12.840;2023-09-12T10:49:36;6.70;;;6.10;;
25045;SDS011;13044;49.304;12.840;2023-09-12T10:52:04;10.63;;;7.88;;
25045;SDS011;13044;49.304;12.840;2023-09-12T10:54:38;7.50;;;6.40;;
25045;SDS011;13044;49.304;12.840;2023-09-12T11:02:27;6.78;;;6.07;;
25045;SDS011;13044;49.304;12.840;2023-09-12T11:05:03;6.13;;;5.63;;
25045;SDS011;13044;49.304;12.840;2023-09-12T11:07:34;6.40;;;5.85;;
25045;SDS011;13044;49.304;12.840;2023-09-12T11:12:42;7.03;;;5.93;;
25045;SDS011;13044;49.304;12.840;2023-09-12T11:15:09;9.20;;;5.85;;
25045;SDS011;13044;49.304;12.840;2023-09-12T11:17:40;9.63;;;6.35;;
25045;SDS011;13044;49.304;12.840;2023-09-12T11:20:09;6.40;;;5.80;;
25045;SDS011;13044;49.304;12.840;2023-09-12T11:27:46;6.70;;;5.57;;
25045;SDS011;13044;49.304;12.840;2023-09-12T11:30:30;6.35;;;5.65;;
25045;SDS011;13044;49.304;12.840;2023-09-12T11:32:58;6.20;;;5.60;;
25045;SDS011;13044;49.304;12.840;2023-09-12T11:35:27;6.03;;;5.53;;
25045;SDS011;13044;49.304;12.840;2023-09-12T11:43:00;5.97;;;5.47;;
25045;SDS011;13044;49.304;12.840;2023-09-12T11:45:28;10.02;;;5.55;;
25045;SDS011;13044;49.304;12.840;2023-09-12T11:47:56;6.65;;;6.00;;
25045;SDS011;13044;49.304;12.840;2023-09-12T11:50:30;6.03;;;5.43;;
25045;SDS011;13044;49.304;12.840;2023-09-12T11:53:03;6.15;;;5.47;;
25045;SDS011;13044;49.304;12.840;2023-09-12T11:55:52;6.70;;;5.65;;
25045;SDS011;13044;49.304;12.840;2023-09-12T11:58:22;6.00;;;5.50;;
25045;SDS011;13044;49.304;12.840;2023-09-12T12:00:52;6.07;;;5.45;;
25045;SDS011;13044;49.304;12.840;2023-09-12T12:03:22;6.43;;;5.72;;
25045;SDS011;13044;49.304;12.840;2023-09-12T12:05:52;9.70;;;5.65;;
25045;SDS011;13044;49.304;12.840;2023-09-12T12:08:21;6.57;;;5.53;;
25045;SDS011;13044;49.304;12.840;2023-09-12T12:10:52;6.28;;;5.40;;
25045;SDS011;13044;49.304;12.840;2023-09-12T12:13:21;6.50;;;5.35;;
25045;SDS011;13044;49.304;12.840;2023-09-12T12:16:16;6.18;;;5.57;;
25045;SDS011;13044;49.304;12.840;2023-09-12T12:18:44;5.95;;;5.25;;
25045;SDS011;13044;49.304;12.840;2023-09-12T12:21:11;5.80;;;5.22;;
25045;SDS011;13044;49.304;12.840;2023-09-12T12:23:39;6.38;;;5.78;;
25045;SDS011;13044;49.304;12.840;2023-09-12T12:26:09;7.13;;;6.18;;
25045;SDS011;13044;49.304;12.840;2023-09-12T12:28:37;8.38;;;5.93;;
25045;SDS011;13044;49.304;12.840;2023-09-12T12:31:05;6.40;;;5.78;;
25045;SDS011;13044;49.304;12.840;2023-09-12T12:33:32;6.03;;;5.10;;
25045;SDS011;13044;49.304;12.840;2023-09-12T12:36:19;6.78;;;5.78;;
25045;SDS011;13044;49.304;12.840;2023-09-12T12:38:47;6.20;;;5.60;;
25045;SDS011;13044;49.304;12.840;2023-09-12T12:41:23;6.05;;;5.55;;
25045;SDS011;13044;49.304;12.840;2023-09-12T12:44:05;6.68;;;6.00;;
25045;SDS011;13044;49.304;12.840;2023-09-12T12:46:33;6.47;;;5.78;;
25045;SDS011;13044;49.304;12.840;2023-09-12T12:49:00;6.13;;;5.55;;
25045;SDS011;13044;49.304;12.840;2023-09-12T12:51:27;8.55;;;6.10;;
25045;SDS011;13044;49.304;12.840;2023-09-12T12:54:02;6.80;;;6.03;;
25045;SDS011;13044;49.304;12.840;2023-09-12T12:56:32;7.22;;;6.53;;
25045;SDS011;13044;49.304;12.840;2023-09-12T12:59:00;6.55;;;5.90;;
25045;SDS011;13044;49.304;12.840;2023-09-12T13:01:29;7.10;;;6.43;;
25045;SDS011;13044;49.304;12.840;2023-09-12T13:03:57;6.57;;;5.97;;
25045;SDS011;13044;49.304;12.840;2023-09-12T13:06:25;12.77;;;6.03;;
25045;SDS011;13044;49.304;12.840;2023-09-12T13:08:54;7.75;;;6.57;;
25045;SDS011;13044;49.304;12.840;2023-09-12T13:11:23;6.30;;;5.50;;
25045;SDS011;13044;49.304;12.840;2023-09-12T13:13:50;6.03;;;5.25;;
25045;SDS011;13044;49.304;12.840;2023-09-12T13:16:18;6.10;;;5.60;;
25045;SDS011;13044;49.304;12.840;2023-09-12T13:18:46;6.38;;;5.78;;
25045;SDS011;13044;49.304;12.840;2023-09-12T13:21:13;9.30;;;6.30;;
25045;SDS011;13044;49.304;12.840;2023-09-12T13:23:40;10.35;;;6.05;;
25045;SDS011;13044;49.304;12.840;2023-09-12T13:26:08;6.22;;;5.65;;
25045;SDS011;13044;49.304;12.840;2023-09-12T13:28:36;6.72;;;6.00;;
25045;SDS011;13044;49.304;12.840;2023-09-12T13:31:04;6.75;;;6.05;;
25045;SDS011;13044;49.304;12.840;2023-09-12T13:33:31;6.07;;;5.50;;
25045;SDS011;13044;49.304;12.840;2023-09-12T13:35:59;6.47;;;5.57;;
25045;SDS011;13044;49.304;12.840;2023-09-12T13:38:26;6.07;;;5.47;;
25045;SDS011;13044;49.304;12.840;2023-09-12T13:40:53;6.60;;;6.00;;
25045;SDS011;13044;49.304;12.840;2023-09-12T13:43:20;5.80;;;5.30;;
25045;SDS011;13044;49.304;12.840;2023-09-12T13:45:47;6.32;;;5.35;;
25045;SDS011;13044;49.304;12.840;2023-09-12T13:48:14;6.60;;;5.90;;
25045;SDS011;13044;49.304;12.840;2023-09-12T13:50:41;6.20;;;5.60;;
25045;SDS011;13044;49.304;12.840;2023-09-12T13:53:12;6.70;;;6.10;;
25045;SDS011;13044;49.304;12.840;2023-09-12T13:55:39;7.65;;;5.93;;
25045;SDS011;13044;49.304;12.840;2023-09-12T13:58:26;7.40;;;5.90;;
25045;SDS011;13044;49.304;12.840;2023-09-12T14:01:09;7.18;;;6.47;;
25045;SDS011;13044;49.304;12.840;2023-09-12T14:03:43;7.70;;;6.13;;
25045;SDS011;13044;49.304;12.840;2023-09-12T14:06:11;6.68;;;6.07;;
25045;SDS011;13044;49.304;12.840;2023-09-12T14:08:38;8.82;;;6.55;;
25045;SDS011;13044;49.304;12.840;2023-09-12T14:11:06;6.60;;;6.00;;
25045;SDS011;13044;49.304;12.840;2023-09-12T14:13:45;6.18;;;5.50;;
25045;SDS011;13044;49.304;12.840;2023-09-12T14:16:15;7.78;;;6.95;;
25045;SDS011;13044;49.304;12.840;2023-09-12T14:18:43;6.70;;;6.10;;
25045;SDS011;13044;49.304;12.840;2023-09-12T14:21:10;6.85;;;6.15;;
25045;SDS011;13044;49.304;12.840;2023-09-12T14:23:38;7.03;;;6.28;;
25045;SDS011;13044;49.304;12.840;2023-09-12T14:26:06;8.05;;;6.40;;
25045;SDS011;13044;49.304;12.840;2023-09-12T14:28:34;6.75;;;6.07;;
25045;SDS011;13044;49.304;12.840;2023-09-12T14:31:01;6.65;;;5.93;;
25045;SDS011;13044;49.304;12.840;2023-09-12T14:33:30;6.50;;;5.80;;
25045;SDS011;13044;49.304;12.840;2023-09-12T14:35:57;7.95;;;5.90;;
25045;SDS011;13044;49.304;12.840;2023-09-12T14:38:24;6.88;;;6.18;;
25045;SDS011;13044;49.304;12.840;2023-09-12T14:40:52;8.30;;;6.72;;
25045;SDS011;13044;49.304;12.840;2023-09-12T14:43:19;5.88;;;5.38;;
25045;SDS011;13044;49.304;12.840;2023-09-12T14:45:47;7.20;;;5.75;;
25045;SDS011;13044;49.304;12.840;2023-09-12T14:48:14;6.28;;;5.70;;
25045;SDS011;13044;49.304;12.840;2023-09-12T14:50:41;7.45;;;6.20;;
25045;SDS011;13044;49.304;12.840;2023-09-12T14:53:10;8.98;;;6.57;;
25045;SDS011;13044;49.304;12.840;2023-09-12T14:55:40;8.20;;;6.68;;
25045;SDS011;13044;49.304;12.840;2023-09-12T14:58:08;8.48;;;6.60;;
25045;SDS011;13044;49.304;12.840;2023-09-12T15:00:35;6.75;;;6.15;;
25045;SDS011;13044;49.304;12.840;2023-09-12T15:03:03;7.85;;;6.68;;